^^
Saratoga-Weather Station Historical Data
Daily Summary for October 30, 2021 Units:  English    Metric   Both
Daily Weekly Monthly Yearly Custom
  High: Low: Average:
Temperature: 57.4 °F 50.5 °F 53.1 °F
Dew Point: 55.4 °F 48.2 °F 51.1 °F
Humidity: 96% 84% 93%
Wind Speed: 6.9mph 0mph 1.2mph
Wind Gust: 11mph - -
Wind- - ESE
Pressure: 29.8 in 29.6 in -
Precipitation: 0.46 in    
Historical Graphs
 
 
Tabular Data for October 30, 2021
Time Temperature Dew Point Pressure Wind Wind Speed Wind Gust Humidity Rainfall Rate (Hourly) solar
00:02 52.2 °F 48.7 °F 29.8 in Calm     88% 0 in 0 W/m2
00:07 52.2 °F 48.7 °F 29.8 in Calm     88% 0 in 0 W/m2
00:12 52.2 °F 49.1 °F 29.8 in Calm     89% 0 in 0 W/m2
00:17 52 °F 48.9 °F 29.8 in Calm     89% 0 in 0 W/m2
00:22 52 °F 48.9 °F 29.8 in Calm     89% 0 in 0 W/m2
00:27 52 °F 48.9 °F 29.8 in Calm     89% 0 in 0 W/m2
00:32 52 °F 48.9 °F 29.8 in Calm     89% 0 in 0 W/m2
00:37 51.8 °F 48.7 °F 29.8 in Calm     89% 0 in 0 W/m2
00:42 51.8 °F 48.7 °F 29.8 in Calm     89% 0 in 0 W/m2
00:47 51.8 °F 48.9 °F 29.8 in Calm     90% 0 in 0 W/m2
00:52 51.8 °F 48.9 °F 29.8 in Calm     90% 0 in 0 W/m2
00:57 51.8 °F 48.9 °F 29.8 in Calm     90% 0 in 0 W/m2
01:02 51.8 °F 48.9 °F 29.8 in Calm     90% 0 in 0 W/m2
01:07 51.6 °F 48.7 °F 29.7 in Calm     90% 0 in 0 W/m2
01:12 51.8 °F 48.7 °F 29.7 in Calm     89% 0 in 0 W/m2
01:17 52 °F 48.9 °F 29.7 in Calm     89% 0 in 0 W/m2
01:22 52 °F 48.9 °F 29.8 in Calm     89% 0 in 0 W/m2
01:27 52 °F 48.9 °F 29.7 in Calm     89% 0 in 0 W/m2
01:32 52 °F 48.9 °F 29.7 in Calm     89% 0 in 0 W/m2
01:37 51.8 °F 48.7 °F 29.7 in Calm     89% 0 in 0 W/m2
01:42 51.8 °F 48.7 °F 29.7 in Calm     89% 0 in 0 W/m2
01:47 51.6 °F 48.7 °F 29.7 in Calm     90% 0 in 0 W/m2
01:52 51.6 °F 48.6 °F 29.7 in Calm     89% 0 in 0 W/m2
01:57 51.4 °F 48.4 °F 29.7 in Calm     89% 0 in 0 W/m2
02:02 51.4 °F 48.4 °F 29.7 in Calm     89% 0 in 0 W/m2
02:07 51.3 °F 48.2 °F 29.7 in Calm     89% 0 in 0 W/m2
02:12 51.4 °F 48.4 °F 29.7 in ENE 2 mph 3 mph 89% 0 in 0 W/m2
02:17 51.6 °F 48.2 °F 29.7 in Calm   2 mph 88% 0 in 0 W/m2
02:22 51.8 °F 48.4 °F 29.7 in Calm   3 mph 88% 0 in 0 W/m2
02:28 51.6 °F 48.2 °F 29.7 in SE 0.9 mph 1 mph 88% 0 in 0 W/m2
02:33 51.6 °F 48.2 °F 29.7 in Calm     88% 0 in 0 W/m2
02:38 51.6 °F 48.2 °F 29.7 in Calm     88% 0 in 0 W/m2
02:43 51.4 °F 48.4 °F 29.7 in Calm     89% 0 in 0 W/m2
02:48 51.4 °F 48.4 °F 29.7 in Calm     89% 0 in 0 W/m2
02:53 51.3 °F 48.2 °F 29.7 in SE 0.9 mph 1 mph 89% 0 in 0 W/m2
02:58 51.3 °F 48.2 °F 29.7 in SE 0.9 mph 2 mph 89% 0 in 0 W/m2
03:03 51.3 °F 48.2 °F 29.7 in NNE 0.9 mph 2 mph 89% 0 in 0 W/m2
03:08 51.3 °F 48.2 °F 29.7 in Calm   3 mph 89% 0 in 0 W/m2
03:13 51.4 °F 48.6 °F 29.7 in Calm     90% 0 in 0 W/m2
03:18 51.4 °F 48.6 °F 29.7 in Calm     90% 0 in 0 W/m2
03:23 51.4 °F 48.6 °F 29.7 in Calm     90% 0 in 0 W/m2
03:28 51.4 °F 48.6 °F 29.7 in Calm     90% 0 in 0 W/m2
03:33 51.4 °F 48.6 °F 29.7 in ENE 2 mph 6 mph 90% 0 in 0 W/m2
03:38 52.3 °F 48.6 °F 29.7 in ENE 2.9 mph 5 mph 87% 0 in 0 W/m2
03:43 52.9 °F 48.7 °F 29.7 in SE 0.9 mph 6 mph 86% 0 in 0 W/m2
03:48 53.1 °F 48.7 °F 29.7 in Calm   3 mph 85% 0 in 0 W/m2
03:53 53.1 °F 48.7 °F 29.7 in NNE 0.9 mph 3 mph 85% 0 in 0 W/m2
03:58 53.1 °F 48.7 °F 29.7 in Calm   1 mph 85% 0 in 0 W/m2
04:03 53.2 °F 48.9 °F 29.7 in ENE 0.9 mph 2 mph 85% 0 in 0 W/m2
04:08 53.2 °F 48.9 °F 29.7 in ENE 2.9 mph 3 mph 85% 0 in 0 W/m2
04:13 53.6 °F 48.9 °F 29.7 in East 0.9 mph 3 mph 84% 0 in 0 W/m2
04:18 53.8 °F 49.1 °F 29.7 in ENE 2 mph 3 mph 84% 0 in 0 W/m2
04:23 53.6 °F 49.3 °F 29.7 in Calm     85% 0 in 0 W/m2
04:28 53.2 °F 49.5 °F 29.7 in Calm   2 mph 87% 0 in 0 W/m2
04:33 53.1 °F 49.3 °F 29.7 in NE 0.9 mph 2 mph 87% 0.01 in 0 W/m2
04:38 52.7 °F 49.3 °F 29.7 in NE 2 mph 3 mph 88% 0.01 in 0 W/m2
04:43 52.5 °F 49.5 °F 29.7 in Calm     89% 0.01 in 0 W/m2
04:48 52.3 °F 49.5 °F 29.7 in Calm   3 mph 90% 0.01 in 0 W/m2
04:53 52.2 °F 49.3 °F 29.7 in Calm   1 mph 90% 0.01 in 0 W/m2
04:58 52 °F 49.5 °F 29.7 in Calm     91% 0.01 in 0 W/m2
05:03 51.6 °F 49.1 °F 29.7 in Calm     91% 0.01 in 0 W/m2
05:08 51.4 °F 49.3 °F 29.7 in Calm     92% 0.01 in 0 W/m2
05:13 51.4 °F 49.3 °F 29.7 in Calm     92% 0.01 in 0 W/m2
05:18 51.3 °F 49.1 °F 29.7 in Calm     92% 0.02 in 0 W/m2
05:23 51.1 °F 49.1 °F 29.7 in Calm     93% 0.02 in 0 W/m2
05:28 51.1 °F 49.1 °F 29.7 in Calm     93% 0.02 in 0 W/m2
05:33 50.9 °F 48.9 °F 29.7 in Calm     93% 0.02 in 0 W/m2
05:38 50.9 °F 48.9 °F 29.7 in Calm     93% 0.02 in 0 W/m2
05:43 50.7 °F 49.1 °F 29.7 in Calm     94% 0.02 in 0 W/m2
05:48 50.7 °F 49.1 °F 29.7 in Calm   1 mph 94% 0.02 in 0 W/m2
05:53 50.7 °F 49.1 °F 29.7 in Calm     94% 0.02 in 0 W/m2
05:58 50.5 °F 48.9 °F 29.7 in Calm   2 mph 94% 0.02 in 0 W/m2
06:03 50.5 °F 48.9 °F 29.7 in SE 2 mph 4 mph 94% 0.02 in 0 W/m2
06:08 50.7 °F 49.1 °F 29.7 in Calm     94% 0.02 in 0 W/m2
06:13 50.7 °F 49.1 °F 29.7 in SSE 0.9 mph 3 mph 94% 0.02 in 0 W/m2
06:18 50.7 °F 49.1 °F 29.7 in Calm   1 mph 94% 0.02 in 0 W/m2
06:23 50.5 °F 48.9 °F 29.7 in Calm   1 mph 94% 0.02 in 0 W/m2
06:28 50.7 °F 49.1 °F 29.7 in South 0.9 mph 2 mph 94% 0.02 in 0 W/m2
06:33 50.5 °F 49.1 °F 29.7 in Calm   1 mph 95% 0.01 in 0 W/m2
06:38 50.5 °F 49.1 °F 29.7 in Calm   2 mph 95% 0.01 in 0 W/m2
06:43 50.5 °F 49.1 °F 29.7 in Calm   2 mph 95% 0.02 in 0 W/m2
06:48 50.5 °F 49.1 °F 29.7 in East 2.9 mph 3 mph 95% 0.02 in 0 W/m2
06:53 50.7 °F 49.3 °F 29.7 in ENE 0.9 mph 4 mph 95% 0.02 in 0 W/m2
06:58 51.1 °F 49.6 °F 29.7 in ENE 2 mph 3 mph 95% 0.02 in 0 W/m2
07:03 51.4 °F 49.8 °F 29.7 in ENE 2.9 mph 3 mph 94% 0.02 in 0 W/m2
07:08 51.6 °F 49.6 °F 29.7 in ENE 2.9 mph 6 mph 93% 0.02 in 0 W/m2
07:13 52 °F 50 °F 29.7 in SE 2 mph 6 mph 93% 0.02 in 0 W/m2
07:18 52 °F 49.6 °F 29.7 in East 2.9 mph 6 mph 92% 0.02 in 0 W/m2
07:23 52.2 °F 49.8 °F 29.7 in East 6.9 mph 8 mph 92% 0.02 in 0 W/m2
07:28 52.3 °F 49.8 °F 29.7 in East 4.9 mph 5 mph 91% 0.02 in 0 W/m2
07:33 52.3 °F 49.8 °F 29.7 in East 2.9 mph 9 mph 91% 0.03 in 0 W/m2
07:38 52.2 °F 49.6 °F 29.7 in SE 2.9 mph 3 mph 91% 0.03 in 0 W/m2
07:43 52.2 °F 49.6 °F 29.7 in NE 4 mph 9 mph 91% 0.03 in 0 W/m2
07:48 52 °F 49.6 °F 29.7 in ESE 2 mph 3 mph 92% 0.03 in 0 W/m2
07:53 52 °F 49.6 °F 29.7 in East 0.9 mph 2 mph 92% 0.04 in 0 W/m2
07:58 51.8 °F 49.6 °F 29.7 in NE 2 mph 5 mph 92% 0.05 in 0 W/m2
08:03 51.6 °F 49.5 °F 29.7 in ENE 0.9 mph 5 mph 92% 0.06 in 0 W/m2
08:09 51.6 °F 49.6 °F 29.7 in ENE 2 mph 5 mph 93% 0.06 in 0 W/m2
08:14 51.4 °F 49.5 °F 29.7 in NE 2.9 mph 4 mph 93% 0.06 in 0 W/m2
08:19 51.4 °F 49.5 °F 29.7 in NE 0.9 mph 4 mph 93% 0.06 in 0 W/m2
08:24 51.4 °F 49.5 °F 29.7 in East 2 mph 5 mph 93% 0.06 in 0 W/m2
08:29 51.4 °F 49.5 °F 29.7 in ESE 2 mph 5 mph 93% 0.06 in 0 W/m2
08:34 51.6 °F 49.6 °F 29.7 in NE 0.9 mph 6 mph 93% 0.05 in 0 W/m2
08:39 51.6 °F 49.6 °F 29.7 in ENE 2 mph 6 mph 93% 0.05 in 0 W/m2
08:44 51.6 °F 49.5 °F 29.7 in East 2.9 mph 4 mph 92% 0.04 in 0 W/m2
08:49 51.6 °F 49.5 °F 29.7 in ENE 2 mph 8 mph 92% 0.04 in 0 W/m2
08:54 51.6 °F 49.5 °F 29.7 in East 2.9 mph 7 mph 92% 0.04 in 0 W/m2
08:59 51.4 °F 49.3 °F 29.7 in East 4 mph 7 mph 92% 0.03 in 0 W/m2
09:04 51.4 °F 49.3 °F 29.7 in NE 2.9 mph 4 mph 92% 0.02 in 5 W/m2
09:09 51.4 °F 49.5 °F 29.7 in NE 2 mph 6 mph 93% 0.02 in 0 W/m2
09:14 51.4 °F 49.5 °F 29.7 in East 0.9 mph 3 mph 93% 0.03 in 7 W/m2
09:19 51.3 °F 49.3 °F 29.7 in ENE 0.9 mph 6 mph 93% 0.02 in 5 W/m2
09:24 51.3 °F 49.3 °F 29.7 in East 0.9 mph 3 mph 93% 0.02 in 7 W/m2
09:29 51.3 °F 49.3 °F 29.7 in Calm     93% 0.02 in 7 W/m2
09:34 51.3 °F 49.6 °F 29.7 in Calm   3 mph 94% 0.02 in 11 W/m2
09:39 51.3 °F 49.6 °F 29.7 in Calm     94% 0.03 in 9 W/m2
09:44 51.3 °F 49.6 °F 29.7 in East 0.9 mph 1 mph 94% 0.03 in 9 W/m2
09:49 51.3 °F 49.6 °F 29.7 in Calm   3 mph 94% 0.04 in 14 W/m2
09:54 51.3 °F 49.6 °F 29.7 in East 0.9 mph 1 mph 94% 0.03 in 21 W/m2
09:59 51.1 °F 49.6 °F 29.7 in Calm   3 mph 95% 0.03 in 19 W/m2
10:04 51.1 °F 49.5 °F 29.7 in East 2 mph 3 mph 94% 0.03 in 18 W/m2
10:09 51.1 °F 49.6 °F 29.7 in Calm   1 mph 95% 0.04 in 12 W/m2
10:14 51.1 °F 49.6 °F 29.7 in Calm   3 mph 95% 0.04 in 7 W/m2
10:19 51.1 °F 49.6 °F 29.7 in Calm     95% 0.05 in 9 W/m2
10:24 51.1 °F 49.6 °F 29.7 in Calm     95% 0.06 in 12 W/m2
10:29 51.1 °F 49.6 °F 29.7 in Calm   2 mph 95% 0.06 in 11 W/m2
10:34 51.1 °F 49.6 °F 29.7 in Calm     95% 0.06 in 11 W/m2
10:39 51.1 °F 49.6 °F 29.6 in Calm     95% 0.06 in 19 W/m2
10:44 51.1 °F 49.6 °F 29.6 in East 0.9 mph 2 mph 95% 0.06 in 19 W/m2
10:49 51.1 °F 49.6 °F 29.6 in NE 0.9 mph 2 mph 95% 0.06 in 14 W/m2
10:54 51.1 °F 50 °F 29.6 in NE 2 mph 2 mph 96% 0.07 in 16 W/m2
10:59 51.3 °F 50.2 °F 29.6 in ENE 0.9 mph 3 mph 96% 0.08 in 18 W/m2
11:04 51.3 °F 50.2 °F 29.6 in ENE 0.9 mph 4 mph 96% 0.08 in 16 W/m2
11:09 51.3 °F 50.2 °F 29.6 in East 2.9 mph 3 mph 96% 0.09 in 16 W/m2
11:14 51.3 °F 50.2 °F 29.6 in NE 0.9 mph 6 mph 96% 0.09 in 18 W/m2
11:19 51.3 °F 50.2 °F 29.6 in ENE 2 mph 3 mph 96% 0.09 in 19 W/m2
11:24 51.3 °F 50.2 °F 29.6 in Calm   6 mph 96% 0.09 in 23 W/m2
11:29 51.3 °F 50.2 °F 29.6 in East 2.9 mph 7 mph 96% 0.1 in 25 W/m2
11:34 51.3 °F 50.2 °F 29.6 in NE 2 mph 4 mph 96% 0.1 in 26 W/m2
11:39 51.3 °F 50.2 °F 29.6 in ENE 2 mph 7 mph 96% 0.11 in 25 W/m2
11:44 51.3 °F 50.2 °F 29.6 in NE 2 mph 2 mph 96% 0.12 in 30 W/m2
11:49 51.3 °F 50.2 °F 29.6 in East 4 mph 4 mph 96% 0.11 in 26 W/m2
11:54 51.3 °F 50.2 °F 29.6 in East 2 mph 3 mph 96% 0.11 in 26 W/m2
11:59 51.3 °F 50.2 °F 29.6 in East 0.9 mph 2 mph 96% 0.1 in 35 W/m2
12:04 51.3 °F 50.2 °F 29.6 in East 0.9 mph 3 mph 96% 0.1 in 30 W/m2
12:09 51.3 °F 50.2 °F 29.6 in Calm     96% 0.09 in 23 W/m2
12:14 51.4 °F 50.4 °F 29.6 in Calm   2 mph 96% 0.08 in 18 W/m2
12:19 51.4 °F 50.4 °F 29.6 in East 2 mph 3 mph 96% 0.09 in 19 W/m2
12:24 51.4 °F 50.4 °F 29.6 in Calm   1 mph 96% 0.08 in 25 W/m2
12:29 51.4 °F 50.4 °F 29.6 in Calm   3 mph 96% 0.09 in 21 W/m2
12:34 51.4 °F 50.4 °F 29.6 in Calm   1 mph 96% 0.09 in 21 W/m2
12:39 51.4 °F 50.4 °F 29.6 in Calm     96% 0.08 in 25 W/m2
12:44 51.4 °F 50.4 °F 29.6 in ENE 0.9 mph 2 mph 96% 0.09 in 25 W/m2
12:49 51.4 °F 50.4 °F 29.6 in Calm     96% 0.09 in 19 W/m2
12:54 51.4 °F 50.4 °F 29.6 in Calm     96% 0.09 in 19 W/m2
12:59 51.4 °F 50.4 °F 29.6 in Calm     96% 0.09 in 14 W/m2
13:04 51.4 °F 50.4 °F 29.6 in ENE 0.9 mph 2 mph 96% 0.09 in 14 W/m2
13:09 51.3 °F 50.2 °F 29.6 in Calm   1 mph 96% 0.08 in 16 W/m2
13:14 51.3 °F 50.2 °F 29.6 in East 0.9 mph 2 mph 96% 0.08 in 18 W/m2
13:19 51.3 °F 50.2 °F 29.6 in ESE 2 mph 3 mph 96% 0.07 in 25 W/m2
13:24 51.3 °F 50.2 °F 29.6 in East 0.9 mph 2 mph 96% 0.06 in 33 W/m2
13:29 51.3 °F 50.2 °F 29.6 in ENE 0.9 mph 2 mph 96% 0.06 in 30 W/m2
13:34 51.4 °F 50.4 °F 29.6 in ENE 0.9 mph 2 mph 96% 0.05 in 46 W/m2
13:39 51.4 °F 50.4 °F 29.6 in East 0.9 mph 3 mph 96% 0.04 in 42 W/m2
13:44 51.4 °F 50.4 °F 29.6 in East 4 mph 5 mph 96% 0.02 in 42 W/m2
13:49 51.4 °F 50.4 °F 29.6 in SE 0.9 mph 5 mph 96% 0.02 in 35 W/m2
13:54 51.4 °F 50.4 °F 29.6 in ENE 2 mph 4 mph 96% 0.01 in 40 W/m2
13:59 51.4 °F 50.4 °F 29.6 in East 0.9 mph 4 mph 96% 0.01 in 42 W/m2
14:04 51.4 °F 50.4 °F 29.6 in ESE 4 mph 6 mph 96% 0.01 in 28 W/m2
14:09 51.4 °F 50.4 °F 29.6 in East 2 mph 5 mph 96% 0.01 in 33 W/m2
14:14 51.4 °F 50.4 °F 29.6 in ENE 2.9 mph 5 mph 96% 0.01 in 46 W/m2
14:19 51.6 °F 50.5 °F 29.6 in East 2.9 mph 3 mph 96% 0 in 35 W/m2
14:24 51.6 °F 50.5 °F 29.6 in East 0.9 mph 2 mph 96% 0 in 46 W/m2
14:29 51.6 °F 50.5 °F 29.6 in SE 4 mph 7 mph 96% 0 in 33 W/m2
14:34 51.8 °F 50.7 °F 29.6 in South 0.9 mph 6 mph 96% 0 in 33 W/m2
14:39 52 °F 50.9 °F 29.6 in ESE 6 mph 6 mph 96% 0 in 30 W/m2
14:44 52 °F 50.9 °F 29.6 in East 4.9 mph 5 mph 96% 0 in 46 W/m2
14:49 52.2 °F 51.1 °F 29.6 in ESE 4 mph 8 mph 96% 0 in 69 W/m2
14:54 52.2 °F 51.1 °F 29.6 in NNE 2 mph 9 mph 96% 0 in 46 W/m2
14:59 52.2 °F 51.1 °F 29.6 in ENE 4 mph 7 mph 96% 0 in 54 W/m2
15:04 52.2 °F 51.1 °F 29.6 in ESE 2.9 mph 9 mph 96% 0 in 69 W/m2
15:09 52.3 °F 51.3 °F 29.6 in ENE 0.9 mph 5 mph 96% 0 in 70 W/m2
15:14 52.3 °F 51.3 °F 29.6 in SE 2.9 mph 6 mph 96% 0 in 65 W/m2
15:19 52.5 °F 51.1 °F 29.6 in East 2.9 mph 6 mph 95% 0 in 39 W/m2
15:24 52.5 °F 51.1 °F 29.6 in East 4.9 mph 8 mph 95% 0 in 60 W/m2
15:29 52.5 °F 51.1 °F 29.6 in East 4.9 mph 7 mph 95% 0 in 120 W/m2
15:34 52.9 °F 51.8 °F 29.6 in ENE 0.9 mph 5 mph 96% 0 in 35 W/m2
15:39 52.9 °F 51.4 °F 29.6 in ENE 2 mph 6 mph 95% 0 in 35 W/m2
15:44 52.9 °F 51.4 °F 29.6 in East 4 mph 6 mph 95% 0 in 49 W/m2
15:49 53.1 °F 51.6 °F 29.6 in ESE 2 mph 4 mph 95% 0 in 39 W/m2
15:54 53.1 °F 51.6 °F 29.6 in ENE 2 mph 7 mph 95% 0 in 53 W/m2
15:59 53.1 °F 51.6 °F 29.6 in ENE 2.9 mph 7 mph 95% 0 in 40 W/m2
16:05 53.2 °F 51.8 °F 29.6 in ENE 4 mph 7 mph 95% 0 in 46 W/m2
16:10 53.2 °F 51.8 °F 29.6 in ENE 2.9 mph 6 mph 95% 0 in 42 W/m2
16:15 53.4 °F 52 °F 29.6 in ENE 2 mph 3 mph 95% 0 in 39 W/m2
16:20 53.4 °F 52 °F 29.6 in NE 4 mph 5 mph 95% 0 in 49 W/m2
16:25 53.8 °F 52.3 °F 29.6 in ESE 2 mph 4 mph 95% 0 in 46 W/m2
16:30 53.8 °F 52.3 °F 29.6 in Calm   3 mph 95% 0 in 39 W/m2
16:35 54 °F 52.5 °F 29.6 in ENE 2.9 mph 4 mph 95% 0 in 39 W/m2
16:40 54.1 °F 52.5 °F 29.6 in NNW 0.9 mph 2 mph 94% 0 in 54 W/m2
16:45 54.3 °F 52.9 °F 29.6 in Calm   3 mph 95% 0 in 28 W/m2
16:50 54.5 °F 52.9 °F 29.6 in ESE 0.9 mph 4 mph 94% 0 in 40 W/m2
16:55 54.7 °F 53.1 °F 29.6 in NNE 0.9 mph 4 mph 94% 0 in 33 W/m2
17:00 54.9 °F 53.2 °F 29.6 in NNE 2 mph 3 mph 94% 0 in 51 W/m2
17:05 55 °F 53.4 °F 29.6 in ENE 0.9 mph 3 mph 94% 0 in 56 W/m2
17:10 55 °F 53.1 °F 29.6 in North 4 mph 4 mph 93% 0 in 40 W/m2
17:15 55.2 °F 53.2 °F 29.6 in ENE 2.9 mph 4 mph 93% 0 in 25 W/m2
17:20 55.4 °F 53.4 °F 29.6 in NNE 0.9 mph 5 mph 93% 0 in 23 W/m2
17:25 55.6 °F 53.6 °F 29.6 in Calm   3 mph 93% 0 in 5 W/m2
17:30 55.6 °F 53.6 °F 29.6 in NNE 2.9 mph 5 mph 93% 0 in 11 W/m2
17:35 55.6 °F 53.2 °F 29.6 in NE 2 mph 4 mph 92% 0 in 11 W/m2
17:40 55.6 °F 53.2 °F 29.6 in NE 0.9 mph 3 mph 92% 0 in 19 W/m2
17:45 55.6 °F 53.2 °F 29.6 in NNW 0.9 mph 2 mph 92% 0 in 16 W/m2
17:50 55.8 °F 53.4 °F 29.6 in NNE 4 mph 7 mph 92% 0 in 12 W/m2
17:55 55.8 °F 53.4 °F 29.6 in ENE 0.9 mph 7 mph 92% 0 in 11 W/m2
18:00 55.8 °F 53.4 °F 29.6 in NE 0.9 mph 3 mph 92% 0 in 7 W/m2
18:05 55.8 °F 53.4 °F 29.6 in NE 2 mph 4 mph 92% 0 in 0 W/m2
18:10 55.8 °F 53.4 °F 29.6 in NW 6 mph 6 mph 92% 0 in 0 W/m2
18:15 55.8 °F 53.4 °F 29.6 in NW 2 mph 4 mph 92% 0 in 0 W/m2
18:20 55.8 °F 53.4 °F 29.6 in NNE 2 mph 4 mph 92% 0 in 0 W/m2
18:25 55.8 °F 53.4 °F 29.6 in NNW 2 mph 4 mph 92% 0 in 0 W/m2
18:30 55.8 °F 53.4 °F 29.6 in ENE 0.9 mph 3 mph 92% 0 in 0 W/m2
18:35 55.8 °F 53.8 °F 29.6 in North 0.9 mph 5 mph 93% 0 in 0 W/m2
18:40 55.8 °F 53.8 °F 29.6 in North 2 mph 5 mph 93% 0 in 0 W/m2
18:45 55.8 °F 53.8 °F 29.6 in NNE 2 mph 3 mph 93% 0 in 0 W/m2
18:50 55.8 °F 53.8 °F 29.6 in NE 2.9 mph 3 mph 93% 0 in 0 W/m2
18:55 55.8 °F 53.8 °F 29.6 in NW 0.9 mph 11 mph 93% 0.01 in 0 W/m2
19:00 55.8 °F 53.8 °F 29.6 in Calm   7 mph 93% 0.02 in 0 W/m2
19:05 55.6 °F 53.6 °F 29.6 in WNW 0.9 mph 11 mph 93% 0.02 in 0 W/m2
19:10 55.6 °F 54 °F 29.6 in NNE 2 mph 4 mph 94% 0.02 in 0 W/m2
19:15 55.8 °F 54.1 °F 29.6 in SSW 0.9 mph 3 mph 94% 0.02 in 0 W/m2
19:20 55.6 °F 54 °F 29.6 in West 2 mph 3 mph 94% 0.02 in 0 W/m2
19:25 55.6 °F 54 °F 29.6 in NE 2 mph 5 mph 94% 0.02 in 0 W/m2
19:30 55.6 °F 54 °F 29.7 in NW 0.9 mph 3 mph 94% 0.02 in 0 W/m2
19:35 55.8 °F 54.1 °F 29.7 in Calm   5 mph 94% 0.02 in 0 W/m2
19:40 55.6 °F 54 °F 29.7 in Calm   2 mph 94% 0.02 in 0 W/m2
19:45 55.6 °F 54 °F 29.7 in NW 2 mph 3 mph 94% 0.02 in 0 W/m2
19:50 55.6 °F 54 °F 29.7 in North 2 mph 4 mph 94% 0.02 in 0 W/m2
19:55 55.6 °F 54 °F 29.7 in NNE 2.9 mph 3 mph 94% 0.01 in 0 W/m2
20:00 55.6 °F 54 °F 29.7 in NE 2 mph 2 mph 94% 0 in 0 W/m2
20:05 55.6 °F 54 °F 29.7 in Calm   3 mph 94% 0 in 0 W/m2
20:10 55.6 °F 54 °F 29.7 in East 0.9 mph 3 mph 94% 0 in 0 W/m2
20:15 55.6 °F 54 °F 29.7 in North 2 mph 2 mph 94% 0 in 0 W/m2
20:20 55.6 °F 54 °F 29.7 in Calm   2 mph 94% 0 in 0 W/m2
20:25 55.6 °F 54 °F 29.7 in NNE 2 mph 3 mph 94% 0 in 0 W/m2
20:30 55.6 °F 54 °F 29.7 in NE 2.9 mph 3 mph 94% 0 in 0 W/m2
20:35 55.6 °F 54 °F 29.7 in Calm   2 mph 94% 0 in 0 W/m2
20:40 55.6 °F 54 °F 29.7 in Calm   1 mph 94% 0 in 0 W/m2
20:45 55.6 °F 54 °F 29.7 in East 0.9 mph 4 mph 94% 0 in 0 W/m2
20:50 55.8 °F 54.1 °F 29.7 in Calm   2 mph 94% 0 in 0 W/m2
20:55 55.9 °F 54.3 °F 29.7 in Calm   4 mph 94% 0 in 0 W/m2
21:01 55.9 °F 54.3 °F 29.7 in ENE 2 mph 2 mph 94% 0 in 0 W/m2
21:06 55.9 °F 54.3 °F 29.7 in NNW 2 mph 2 mph 94% 0 in 0 W/m2
21:11 56.1 °F 54.5 °F 29.7 in ENE 0.9 mph 5 mph 94% 0 in 0 W/m2
21:16 56.1 °F 54.5 °F 29.7 in East 0.9 mph 1 mph 94% 0 in 0 W/m2
21:21 56.1 °F 54.5 °F 29.7 in NE 0.9 mph 5 mph 94% 0 in 0 W/m2
21:26 56.1 °F 54.5 °F 29.7 in ENE 4 mph 4 mph 94% 0 in 0 W/m2
21:31 55.9 °F 54.3 °F 29.7 in ENE 2 mph 4 mph 94% 0 in 0 W/m2
21:36 55.9 °F 54.3 °F 29.7 in ENE 2 mph 4 mph 94% 0 in 0 W/m2
21:41 55.9 °F 54.3 °F 29.7 in ENE 2.9 mph 5 mph 94% 0 in 0 W/m2
21:46 55.9 °F 54.3 °F 29.7 in ENE 2.9 mph 3 mph 94% 0 in 0 W/m2
21:51 55.9 °F 54.3 °F 29.7 in NNE 0.9 mph 3 mph 94% 0 in 0 W/m2
21:56 56.3 °F 54.7 °F 29.7 in ENE 2 mph 4 mph 94% 0 in 0 W/m2
22:01 56.5 °F 54.9 °F 29.7 in Calm   2 mph 94% 0 in 0 W/m2
22:06 56.7 °F 55 °F 29.7 in NW 0.9 mph 5 mph 94% 0 in 0 W/m2
22:11 56.7 °F 55 °F 29.7 in ENE 2.9 mph 4 mph 94% 0 in 0 W/m2
22:16 56.8 °F 55.2 °F 29.7 in WSW 0.9 mph 8 mph 94% 0 in 0 W/m2
22:21 57 °F 55.2 °F 29.7 in NNW 2 mph 5 mph 94% 0 in 0 W/m2
22:26 57.2 °F 55.2 °F 29.7 in Calm     93% 0 in 0 W/m2
22:31 57.2 °F 55.2 °F 29.7 in NW 0.9 mph 3 mph 93% 0 in 0 W/m2
22:36 57.2 °F 55.2 °F 29.7 in NW 0.9 mph 2 mph 93% 0 in 0 W/m2
22:41 57.2 °F 55.2 °F 29.7 in ENE 2 mph 4 mph 93% 0 in 0 W/m2
22:46 57.4 °F 55.4 °F 29.7 in NNW 2 mph 4 mph 93% 0 in 0 W/m2
22:51 57.4 °F 55.4 °F 29.7 in North 0.9 mph 2 mph 93% 0 in 0 W/m2
22:56 57.4 °F 55.4 °F 29.7 in North 0.9 mph 2 mph 93% 0 in 0 W/m2
23:01 57.4 °F 55.4 °F 29.7 in WNW 2 mph 4 mph 93% 0 in 0 W/m2
23:06 57.4 °F 55.4 °F 29.7 in West 0.9 mph 2 mph 93% 0 in 0 W/m2
23:11 57.4 °F 55.4 °F 29.7 in Calm   4 mph 93% 0 in 0 W/m2
23:16 57.4 °F 55.4 °F 29.7 in Calm     93% 0 in 0 W/m2
23:21 57.2 °F 55.2 °F 29.7 in Calm     93% 0 in 0 W/m2
23:26 57 °F 55 °F 29.7 in Calm     93% 0 in 0 W/m2
23:31 57 °F 55 °F 29.7 in Calm     93% 0 in 0 W/m2
23:36 56.8 °F 54.9 °F 29.7 in Calm   1 mph 93% 0 in 0 W/m2
23:41 56.8 °F 55.2 °F 29.7 in Calm   3 mph 94% 0.01 in 0 W/m2
23:46 56.8 °F 55.2 °F 29.7 in ENE 0.9 mph 2 mph 94% 0.01 in 0 W/m2
23:56 56.7 °F 55 °F 29.7 in Calm   1 mph 94% 0.02 in 0 W/m2
Juneau County Weather
Compliments of Weather Underground - 4 mb